sensor_id;sensor_type;location;lat;lon;timestamp;temperature;humidity
37658;DHT22;23500;53.268;8.308;2023-11-25T00:00:22;16.20;76.70
37658;DHT22;23500;53.268;8.308;2023-11-25T00:02:48;16.20;76.70
37658;DHT22;23500;53.268;8.308;2023-11-25T00:05:15;16.20;76.70
37658;DHT22;23500;53.268;8.308;2023-11-25T00:07:40;16.20;76.80
37658;DHT22;23500;53.268;8.308;2023-11-25T00:10:06;16.20;76.80
37658;DHT22;23500;53.268;8.308;2023-11-25T00:12:33;16.20;77.50
37658;DHT22;23500;53.268;8.308;2023-11-25T00:14:59;16.10;76.80
37658;DHT22;23500;53.268;8.308;2023-11-25T00:17:25;16.20;76.90
37658;DHT22;23500;53.268;8.308;2023-11-25T00:19:54;16.10;76.90
37658;DHT22;23500;53.268;8.308;2023-11-25T00:22:21;16.10;76.90
37658;DHT22;23500;53.268;8.308;2023-11-25T00:24:48;16.10;76.90
37658;DHT22;23500;53.268;8.308;2023-11-25T00:27:14;16.10;76.90
37658;DHT22;23500;53.268;8.308;2023-11-25T00:29:40;16.10;76.90
37658;DHT22;23500;53.268;8.308;2023-11-25T00:32:06;16.10;77.00
37658;DHT22;23500;53.268;8.308;2023-11-25T00:34:33;16.10;77.00
37658;DHT22;23500;53.268;8.308;2023-11-25T00:36:58;16.10;77.00
37658;DHT22;23500;53.268;8.308;2023-11-25T00:39:24;16.10;77.10
37658;DHT22;23500;53.268;8.308;2023-11-25T00:41:53;16.10;77.10
37658;DHT22;23500;53.268;8.308;2023-11-25T00:44:19;16.10;77.30
37658;DHT22;23500;53.268;8.308;2023-11-25T00:46:44;16.10;77.30
37658;DHT22;23500;53.268;8.308;2023-11-25T00:49:10;16.10;77.30
37658;DHT22;23500;53.268;8.308;2023-11-25T00:51:37;16.10;77.80
37658;DHT22;23500;53.268;8.308;2023-11-25T00:54:04;16.10;77.60
37658;DHT22;23500;53.268;8.308;2023-11-25T00:56:30;16.10;77.70
37658;DHT22;23500;53.268;8.308;2023-11-25T00:58:57;16.10;77.80
37658;DHT22;23500;53.268;8.308;2023-11-25T01:01:22;16.10;77.90
37658;DHT22;23500;53.268;8.308;2023-11-25T01:03:48;16.00;77.90
37658;DHT22;23500;53.268;8.308;2023-11-25T01:06:14;16.00;78.00
37658;DHT22;23500;53.268;8.308;2023-11-25T01:08:40;16.10;78.00
37658;DHT22;23500;53.268;8.308;2023-11-25T01:11:06;16.10;78.00
37658;DHT22;23500;53.268;8.308;2023-11-25T01:13:31;16.20;77.90
37658;DHT22;23500;53.268;8.308;2023-11-25T01:15:57;16.30;77.60
37658;DHT22;23500;53.268;8.308;2023-11-25T01:18:23;16.50;77.20
37658;DHT22;23500;53.268;8.308;2023-11-25T01:20:49;16.70;76.70
37658;DHT22;23500;53.268;8.308;2023-11-25T01:23:14;16.90;76.10
37658;DHT22;23500;53.268;8.308;2023-11-25T01:25:43;17.10;75.50
37658;DHT22;23500;53.268;8.308;2023-11-25T01:28:09;17.30;74.90
37658;DHT22;23500;53.268;8.308;2023-11-25T01:30:35;17.50;74.30
37658;DHT22;23500;53.268;8.308;2023-11-25T01:33:04;17.70;73.70
37658;DHT22;23500;53.268;8.308;2023-11-25T01:35:32;17.90;73.00
37658;DHT22;23500;53.268;8.308;2023-11-25T01:37:58;18.00;72.50
37658;DHT22;23500;53.268;8.308;2023-11-25T01:40:24;18.00;72.20
37658;DHT22;23500;53.268;8.308;2023-11-25T01:42:55;18.10;72.10
37658;DHT22;23500;53.268;8.308;2023-11-25T01:45:20;18.10;72.00
37658;DHT22;23500;53.268;8.308;2023-11-25T01:47:46;18.10;71.90
37658;DHT22;23500;53.268;8.308;2023-11-25T01:50:12;18.10;72.00
37658;DHT22;23500;53.268;8.308;2023-11-25T01:52:39;18.00;71.90
37658;DHT22;23500;53.268;8.308;2023-11-25T01:55:06;18.00;72.00
37658;DHT22;23500;53.268;8.308;2023-11-25T01:57:34;18.00;72.00
37658;DHT22;23500;53.268;8.308;2023-11-25T02:00:01;18.00;72.20
37658;DHT22;23500;53.268;8.308;2023-11-25T02:02:34;17.90;72.20
37658;DHT22;23500;53.268;8.308;2023-11-25T02:05:03;17.90;72.40
37658;DHT22;23500;53.268;8.308;2023-11-25T02:07:29;17.90;72.60
37658;DHT22;23500;53.268;8.308;2023-11-25T02:09:55;17.80;72.70
37658;DHT22;23500;53.268;8.308;2023-11-25T02:12:21;17.70;72.80
37658;DHT22;23500;53.268;8.308;2023-11-25T02:14:47;17.70;73.00
37658;DHT22;23500;53.268;8.308;2023-11-25T02:17:14;17.60;73.10
37658;DHT22;23500;53.268;8.308;2023-11-25T02:19:42;17.60;73.30
37658;DHT22;23500;53.268;8.308;2023-11-25T02:22:11;17.60;73.50
37658;DHT22;23500;53.268;8.308;2023-11-25T02:24:37;17.50;73.60
37658;DHT22;23500;53.268;8.308;2023-11-25T02:27:04;17.50;73.80
37658;DHT22;23500;53.268;8.308;2023-11-25T02:29:30;17.40;73.90
37658;DHT22;23500;53.268;8.308;2023-11-25T02:31:58;17.40;74.10
37658;DHT22;23500;53.268;8.308;2023-11-25T02:34:27;17.30;74.30
37658;DHT22;23500;53.268;8.308;2023-11-25T02:36:52;17.30;74.50
37658;DHT22;23500;53.268;8.308;2023-11-25T02:39:19;17.20;74.60
37658;DHT22;23500;53.268;8.308;2023-11-25T02:41:51;17.20;74.80
37658;DHT22;23500;53.268;8.308;2023-11-25T02:44:19;17.20;75.00
37658;DHT22;23500;53.268;8.308;2023-11-25T02:46:46;17.10;75.10
37658;DHT22;23500;53.268;8.308;2023-11-25T02:49:12;17.10;75.20
37658;DHT22;23500;53.268;8.308;2023-11-25T02:51:45;17.00;75.30
37658;DHT22;23500;53.268;8.308;2023-11-25T02:54:11;17.00;75.40
37658;DHT22;23500;53.268;8.308;2023-11-25T02:56:37;17.00;75.50
37658;DHT22;23500;53.268;8.308;2023-11-25T02:59:03;17.00;75.60
37658;DHT22;23500;53.268;8.308;2023-11-25T03:01:28;17.00;75.60
37658;DHT22;23500;53.268;8.308;2023-11-25T03:03:55;17.00;75.60
37658;DHT22;23500;53.268;8.308;2023-11-25T03:06:25;17.00;75.60
37658;DHT22;23500;53.268;8.308;2023-11-25T03:08:52;17.00;75.60
37658;DHT22;23500;53.268;8.308;2023-11-25T03:11:21;17.00;76.30
37658;DHT22;23500;53.268;8.308;2023-11-25T03:13:47;17.00;75.50
37658;DHT22;23500;53.268;8.308;2023-11-25T03:16:14;17.10;75.50
37658;DHT22;23500;53.268;8.308;2023-11-25T03:18:40;17.10;76.10
37658;DHT22;23500;53.268;8.308;2023-11-25T03:21:06;17.10;75.30
37658;DHT22;23500;53.268;8.308;2023-11-25T03:23:33;17.10;75.30
37658;DHT22;23500;53.268;8.308;2023-11-25T03:26:03;17.10;75.30
37658;DHT22;23500;53.268;8.308;2023-11-25T03:28:30;17.10;75.20
37658;DHT22;23500;53.268;8.308;2023-11-25T03:31:02;17.10;75.30
37658;DHT22;23500;53.268;8.308;2023-11-25T03:33:29;17.10;75.30
37658;DHT22;23500;53.268;8.308;2023-11-25T03:35:54;17.10;75.30
37658;DHT22;23500;53.268;8.308;2023-11-25T03:38:20;17.10;75.30
37658;DHT22;23500;53.268;8.308;2023-11-25T03:40:48;17.00;75.40
37658;DHT22;23500;53.268;8.308;2023-11-25T03:43:14;17.00;75.40
37658;DHT22;23500;53.268;8.308;2023-11-25T03:45:39;17.00;75.30
37658;DHT22;23500;53.268;8.308;2023-11-25T03:48:06;17.00;75.40
37658;DHT22;23500;53.268;8.308;2023-11-25T03:50:32;17.00;75.50
37658;DHT22;23500;53.268;8.308;2023-11-25T03:52:57;16.90;75.50
37658;DHT22;23500;53.268;8.308;2023-11-25T03:55:23;16.90;75.60
37658;DHT22;23500;53.268;8.308;2023-11-25T03:57:49;16.90;75.70
37658;DHT22;23500;53.268;8.308;2023-11-25T04:00:15;16.80;75.90
37658;DHT22;23500;53.268;8.308;2023-11-25T04:02:45;16.80;76.00
37658;DHT22;23500;53.268;8.308;2023-11-25T04:05:12;16.80;76.80
37658;DHT22;23500;53.268;8.308;2023-11-25T04:07:39;16.80;76.10
37658;DHT22;23500;53.268;8.308;2023-11-25T04:10:07;16.80;76.20
37658;DHT22;23500;53.268;8.308;2023-11-25T04:12:44;16.80;76.20
37658;DHT22;23500;53.268;8.308;2023-11-25T04:15:12;16.80;76.20
37658;DHT22;23500;53.268;8.308;2023-11-25T04:17:38;16.80;76.10
37658;DHT22;23500;53.268;8.308;2023-11-25T04:20:11;16.90;75.90
37658;DHT22;23500;53.268;8.308;2023-11-25T04:22:46;16.80;75.70
37658;DHT22;23500;53.268;8.308;2023-11-25T04:25:14;16.80;75.70
37658;DHT22;23500;53.268;8.308;2023-11-25T04:27:41;16.90;75.50
37658;DHT22;23500;53.268;8.308;2023-11-25T04:30:08;16.90;75.30
37658;DHT22;23500;53.268;8.308;2023-11-25T04:32:35;17.00;75.20
37658;DHT22;23500;53.268;8.308;2023-11-25T04:35:01;16.90;75.10
37658;DHT22;23500;53.268;8.308;2023-11-25T04:37:30;16.90;75.00
37658;DHT22;23500;53.268;8.308;2023-11-25T04:39:56;16.90;75.00
37658;DHT22;23500;53.268;8.308;2023-11-25T04:42:22;16.90;74.90
37658;DHT22;23500;53.268;8.308;2023-11-25T04:44:49;17.00;75.10
37658;DHT22;23500;53.268;8.308;2023-11-25T04:47:14;16.90;75.10
37658;DHT22;23500;53.268;8.308;2023-11-25T04:49:40;16.90;75.30
37658;DHT22;23500;53.268;8.308;2023-11-25T04:52:06;16.90;75.50
37658;DHT22;23500;53.268;8.308;2023-11-25T04:54:31;16.90;75.60
37658;DHT22;23500;53.268;8.308;2023-11-25T04:56:58;16.80;75.60
37658;DHT22;23500;53.268;8.308;2023-11-25T04:59:24;16.90;75.80
37658;DHT22;23500;53.268;8.308;2023-11-25T05:01:50;16.80;75.80
37658;DHT22;23500;53.268;8.308;2023-11-25T05:04:16;16.80;75.90
37658;DHT22;23500;53.268;8.308;2023-11-25T05:06:42;16.80;75.90
37658;DHT22;23500;53.268;8.308;2023-11-25T05:09:09;16.80;76.10
37658;DHT22;23500;53.268;8.308;2023-11-25T05:11:39;16.80;76.10
37658;DHT22;23500;53.268;8.308;2023-11-25T05:14:06;16.80;76.10
37658;DHT22;23500;53.268;8.308;2023-11-25T05:16:31;16.70;76.20
37658;DHT22;23500;53.268;8.308;2023-11-25T05:18:57;16.70;76.30
37658;DHT22;23500;53.268;8.308;2023-11-25T05:21:23;16.70;76.30
37658;DHT22;23500;53.268;8.308;2023-11-25T05:23:48;16.70;76.30
37658;DHT22;23500;53.268;8.308;2023-11-25T05:26:15;16.70;76.40
37658;DHT22;23500;53.268;8.308;2023-11-25T05:28:42;16.70;76.40
37658;DHT22;23500;53.268;8.308;2023-11-25T05:31:07;16.70;76.40
37658;DHT22;23500;53.268;8.308;2023-11-25T05:33:33;16.70;76.50
37658;DHT22;23500;53.268;8.308;2023-11-25T05:35:59;16.70;76.40
37658;DHT22;23500;53.268;8.308;2023-11-25T05:38:28;16.70;76.30
37658;DHT22;23500;53.268;8.308;2023-11-25T05:40:54;16.80;76.30
37658;DHT22;23500;53.268;8.308;2023-11-25T05:43:19;16.80;76.30
37658;DHT22;23500;53.268;8.308;2023-11-25T05:45:45;16.80;76.10
37658;DHT22;23500;53.268;8.308;2023-11-25T05:48:12;16.80;76.10
37658;DHT22;23500;53.268;8.308;2023-11-25T05:50:38;16.80;76.00
37658;DHT22;23500;53.268;8.308;2023-11-25T05:53:04;16.80;75.90
37658;DHT22;23500;53.268;8.308;2023-11-25T05:55:30;16.90;75.80
37658;DHT22;23500;53.268;8.308;2023-11-25T05:57:56;16.80;75.70
37658;DHT22;23500;53.268;8.308;2023-11-25T06:00:21;16.80;75.70
37658;DHT22;23500;53.268;8.308;2023-11-25T06:02:48;16.80;75.70
37658;DHT22;23500;53.268;8.308;2023-11-25T06:05:15;16.80;75.70
37658;DHT22;23500;53.268;8.308;2023-11-25T06:07:40;16.80;75.70
37658;DHT22;23500;53.268;8.308;2023-11-25T06:10:07;16.80;75.70
37658;DHT22;23500;53.268;8.308;2023-11-25T06:12:35;16.80;75.80
37658;DHT22;23500;53.268;8.308;2023-11-25T06:15:00;16.80;75.90
37658;DHT22;23500;53.268;8.308;2023-11-25T06:17:26;16.70;76.00
37658;DHT22;23500;53.268;8.308;2023-11-25T06:19:53;16.70;76.10
37658;DHT22;23500;53.268;8.308;2023-11-25T06:22:19;16.70;76.20
37658;DHT22;23500;53.268;8.308;2023-11-25T06:24:47;16.70;76.30
37658;DHT22;23500;53.268;8.308;2023-11-25T06:27:13;16.70;76.30
37658;DHT22;23500;53.268;8.308;2023-11-25T06:29:40;16.70;76.40
37658;DHT22;23500;53.268;8.308;2023-11-25T06:32:06;16.70;76.40
37658;DHT22;23500;53.268;8.308;2023-11-25T06:34:32;16.70;76.40
37658;DHT22;23500;53.268;8.308;2023-11-25T06:36:58;16.70;76.50
37658;DHT22;23500;53.268;8.308;2023-11-25T06:39:24;16.70;76.50
37658;DHT22;23500;53.268;8.308;2023-11-25T06:41:52;16.70;76.50
37658;DHT22;23500;53.268;8.308;2023-11-25T06:44:19;16.70;76.50
37658;DHT22;23500;53.268;8.308;2023-11-25T06:46:45;16.70;76.40
37658;DHT22;23500;53.268;8.308;2023-11-25T06:49:11;16.70;76.40
37658;DHT22;23500;53.268;8.308;2023-11-25T06:51:40;16.70;76.40
37658;DHT22;23500;53.268;8.308;2023-11-25T06:54:07;16.80;76.40
37658;DHT22;23500;53.268;8.308;2023-11-25T06:56:34;16.80;76.30
37658;DHT22;23500;53.268;8.308;2023-11-25T06:59:01;16.80;76.30
37658;DHT22;23500;53.268;8.308;2023-11-25T07:01:27;16.80;76.30
37658;DHT22;23500;53.268;8.308;2023-11-25T07:03:52;16.80;76.30
37658;DHT22;23500;53.268;8.308;2023-11-25T07:06:18;16.80;76.30
37658;DHT22;23500;53.268;8.308;2023-11-25T07:08:45;16.80;76.20
37658;DHT22;23500;53.268;8.308;2023-11-25T07:11:10;16.70;76.20
37658;DHT22;23500;53.268;8.308;2023-11-25T07:13:39;16.80;76.30
37658;DHT22;23500;53.268;8.308;2023-11-25T07:16:05;16.70;76.20
37658;DHT22;23500;53.268;8.308;2023-11-25T07:18:33;16.70;76.30
37658;DHT22;23500;53.268;8.308;2023-11-25T07:20:59;16.70;76.30
37658;DHT22;23500;53.268;8.308;2023-11-25T07:23:26;16.70;76.40
37658;DHT22;23500;53.268;8.308;2023-11-25T07:25:52;16.70;76.40
37658;DHT22;23500;53.268;8.308;2023-11-25T07:28:21;16.70;76.50
37658;DHT22;23500;53.268;8.308;2023-11-25T07:30:48;16.70;76.50
37658;DHT22;23500;53.268;8.308;2023-11-25T07:33:14;16.70;76.50
37658;DHT22;23500;53.268;8.308;2023-11-25T07:35:40;16.70;76.60
37658;DHT22;23500;53.268;8.308;2023-11-25T07:38:05;16.70;76.60
37658;DHT22;23500;53.268;8.308;2023-11-25T07:40:32;16.60;76.50
37658;DHT22;23500;53.268;8.308;2023-11-25T07:42:59;16.60;76.60
37658;DHT22;23500;53.268;8.308;2023-11-25T07:45:25;16.60;76.70
37658;DHT22;23500;53.268;8.308;2023-11-25T07:47:52;16.60;76.70
37658;DHT22;23500;53.268;8.308;2023-11-25T07:50:18;16.60;76.60
37658;DHT22;23500;53.268;8.308;2023-11-25T07:52:45;16.60;76.50
37658;DHT22;23500;53.268;8.308;2023-11-25T07:55:11;16.60;76.40
37658;DHT22;23500;53.268;8.308;2023-11-25T07:57:37;16.60;76.30
37658;DHT22;23500;53.268;8.308;2023-11-25T08:00:05;16.70;76.20
37658;DHT22;23500;53.268;8.308;2023-11-25T08:02:32;16.70;76.00
37658;DHT22;23500;53.268;8.308;2023-11-25T08:04:58;16.80;75.90
37658;DHT22;23500;53.268;8.308;2023-11-25T08:07:24;16.80;75.70
37658;DHT22;23500;53.268;8.308;2023-11-25T08:09:50;16.80;75.50
37658;DHT22;23500;53.268;8.308;2023-11-25T08:12:15;16.90;75.30
37658;DHT22;23500;53.268;8.308;2023-11-25T08:14:41;16.90;75.20
37658;DHT22;23500;53.268;8.308;2023-11-25T08:17:06;16.90;75.10
37658;DHT22;23500;53.268;8.308;2023-11-25T08:19:32;16.90;75.00
37658;DHT22;23500;53.268;8.308;2023-11-25T08:21:58;16.90;74.90
37658;DHT22;23500;53.268;8.308;2023-11-25T08:24:24;17.00;74.90
37658;DHT22;23500;53.268;8.308;2023-11-25T08:26:49;16.90;74.80
37658;DHT22;23500;53.268;8.308;2023-11-25T08:29:15;16.90;74.80
37658;DHT22;23500;53.268;8.308;2023-11-25T08:31:42;17.00;74.90
37658;DHT22;23500;53.268;8.308;2023-11-25T08:34:08;16.90;74.80
37658;DHT22;23500;53.268;8.308;2023-11-25T08:36:38;16.90;74.80
37658;DHT22;23500;53.268;8.308;2023-11-25T08:39:11;16.90;74.90
37658;DHT22;23500;53.268;8.308;2023-11-25T08:41:40;16.90;75.20
37658;DHT22;23500;53.268;8.308;2023-11-25T08:44:08;16.90;75.30
37658;DHT22;23500;53.268;8.308;2023-11-25T08:46:41;16.80;75.40
37658;DHT22;23500;53.268;8.308;2023-11-25T08:49:11;16.80;75.60
37658;DHT22;23500;53.268;8.308;2023-11-25T08:51:40;16.80;75.70
37658;DHT22;23500;53.268;8.308;2023-11-25T08:54:05;16.80;75.70
37658;DHT22;23500;53.268;8.308;2023-11-25T08:56:31;16.70;75.70
37658;DHT22;23500;53.268;8.308;2023-11-25T08:59:00;16.80;75.70
37658;DHT22;23500;53.268;8.308;2023-11-25T09:01:37;16.80;75.70
37658;DHT22;23500;53.268;8.308;2023-11-25T09:04:03;16.80;75.70
37658;DHT22;23500;53.268;8.308;2023-11-25T09:06:32;16.80;75.70
37658;DHT22;23500;53.268;8.308;2023-11-25T09:08:58;16.80;75.80
37658;DHT22;23500;53.268;8.308;2023-11-25T09:11:23;16.80;75.70
37658;DHT22;23500;53.268;8.308;2023-11-25T09:13:51;16.90;75.60
37658;DHT22;23500;53.268;8.308;2023-11-25T09:16:17;16.90;75.50
37658;DHT22;23500;53.268;8.308;2023-11-25T09:18:43;16.90;75.50
37658;DHT22;23500;53.268;8.308;2023-11-25T09:21:09;16.90;75.30
37658;DHT22;23500;53.268;8.308;2023-11-25T09:23:36;17.00;75.20
37658;DHT22;23500;53.268;8.308;2023-11-25T09:26:02;17.00;75.10
37658;DHT22;23500;53.268;8.308;2023-11-25T09:28:28;17.00;75.00
37658;DHT22;23500;53.268;8.308;2023-11-25T09:30:54;17.00;74.90
37658;DHT22;23500;53.268;8.308;2023-11-25T09:33:19;17.10;74.80
37658;DHT22;23500;53.268;8.308;2023-11-25T09:35:45;17.10;74.80
37658;DHT22;23500;53.268;8.308;2023-11-25T09:38:11;17.10;74.80
37658;DHT22;23500;53.268;8.308;2023-11-25T09:40:36;17.10;74.70
37658;DHT22;23500;53.268;8.308;2023-11-25T09:43:02;17.10;74.70
37658;DHT22;23500;53.268;8.308;2023-11-25T09:45:29;17.10;74.80
37658;DHT22;23500;53.268;8.308;2023-11-25T09:47:55;17.10;74.70
37658;DHT22;23500;53.268;8.308;2023-11-25T09:50:21;17.00;74.70
37658;DHT22;23500;53.268;8.308;2023-11-25T09:52:52;17.00;74.70
37658;DHT22;23500;53.268;8.308;2023-11-25T09:55:19;17.10;74.70
37658;DHT22;23500;53.268;8.308;2023-11-25T09:57:48;17.00;74.70
37658;DHT22;23500;53.268;8.308;2023-11-25T10:00:18;17.00;74.80
37658;DHT22;23500;53.268;8.308;2023-11-25T10:02:50;17.00;74.80
37658;DHT22;23500;53.268;8.308;2023-11-25T10:05:18;17.00;74.90
37658;DHT22;23500;53.268;8.308;2023-11-25T10:07:43;16.90;74.80
37658;DHT22;23500;53.268;8.308;2023-11-25T10:10:09;16.90;74.70
37658;DHT22;23500;53.268;8.308;2023-11-25T10:12:40;16.90;74.60
37658;DHT22;23500;53.268;8.308;2023-11-25T10:15:06;16.90;74.60
37658;DHT22;23500;53.268;8.308;2023-11-25T10:17:33;16.90;74.60
37658;DHT22;23500;53.268;8.308;2023-11-25T10:20:08;16.90;74.50
37658;DHT22;23500;53.268;8.308;2023-11-25T10:22:54;16.90;74.50
37658;DHT22;23500;53.268;8.308;2023-11-25T10:25:25;17.00;74.40
37658;DHT22;23500;53.268;8.308;2023-11-25T10:27:51;17.00;74.30
37658;DHT22;23500;53.268;8.308;2023-11-25T10:30:18;17.00;74.10
37658;DHT22;23500;53.268;8.308;2023-11-25T10:32:45;17.10;74.00
37658;DHT22;23500;53.268;8.308;2023-11-25T10:35:11;17.10;73.80
37658;DHT22;23500;53.268;8.308;2023-11-25T10:37:37;17.10;73.70
37658;DHT22;23500;53.268;8.308;2023-11-25T10:40:10;17.10;73.70
37658;DHT22;23500;53.268;8.308;2023-11-25T10:42:43;17.10;73.50
37658;DHT22;23500;53.268;8.308;2023-11-25T10:45:14;17.10;73.50
37658;DHT22;23500;53.268;8.308;2023-11-25T10:47:41;17.10;73.50
37658;DHT22;23500;53.268;8.308;2023-11-25T10:50:08;17.10;73.30
37658;DHT22;23500;53.268;8.308;2023-11-25T10:52:34;17.10;73.40
37658;DHT22;23500;53.268;8.308;2023-11-25T10:55:06;17.10;73.50
37658;DHT22;23500;53.268;8.308;2023-11-25T10:57:32;17.10;73.30
37658;DHT22;23500;53.268;8.308;2023-11-25T10:59:59;17.10;73.30
37658;DHT22;23500;53.268;8.308;2023-11-25T11:02:30;17.10;73.40
37658;DHT22;23500;53.268;8.308;2023-11-25T11:05:09;17.10;73.40
37658;DHT22;23500;53.268;8.308;2023-11-25T11:07:46;17.10;73.40
37658;DHT22;23500;53.268;8.308;2023-11-25T11:10:19;17.00;73.40
37658;DHT22;23500;53.268;8.308;2023-11-25T11:12:54;17.00;73.40
37658;DHT22;23500;53.268;8.308;2023-11-25T11:15:24;17.00;73.50
37658;DHT22;23500;53.268;8.308;2023-11-25T11:18:09;17.00;73.40
37658;DHT22;23500;53.268;8.308;2023-11-25T11:20:44;17.00;73.50
37658;DHT22;23500;53.268;8.308;2023-11-25T11:23:13;17.00;73.50
37658;DHT22;23500;53.268;8.308;2023-11-25T11:34:09;17.00;73.60
37658;DHT22;23500;53.268;8.308;2023-11-25T11:36:35;17.00;73.40
37658;DHT22;23500;53.268;8.308;2023-11-25T11:39:01;17.00;73.50
37658;DHT22;23500;53.268;8.308;2023-11-25T11:41:27;17.00;73.50
37658;DHT22;23500;53.268;8.308;2023-11-25T11:46:26;17.00;73.20
37658;DHT22;23500;53.268;8.308;2023-11-25T11:48:52;17.10;73.30
37658;DHT22;23500;53.268;8.308;2023-11-25T11:51:18;17.10;73.30
37658;DHT22;23500;53.268;8.308;2023-11-25T11:57:02;17.10;73.10
37658;DHT22;23500;53.268;8.308;2023-11-25T11:59:59;17.10;73.00
37658;DHT22;23500;53.268;8.308;2023-11-25T12:02:29;17.10;73.00
37658;DHT22;23500;53.268;8.308;2023-11-25T12:04:59;17.10;73.20
37658;DHT22;23500;53.268;8.308;2023-11-25T12:07:26;17.10;73.10
37658;DHT22;23500;53.268;8.308;2023-11-25T12:09:55;17.00;72.90
37658;DHT22;23500;53.268;8.308;2023-11-25T12:12:21;17.00;73.10
37658;DHT22;23500;53.268;8.308;2023-11-25T12:14:48;17.00;73.70
37658;DHT22;23500;53.268;8.308;2023-11-25T12:17:15;17.00;73.00
37658;DHT22;23500;53.268;8.308;2023-11-25T12:19:41;17.00;72.80
37658;DHT22;23500;53.268;8.308;2023-11-25T12:22:11;17.00;72.90
37658;DHT22;23500;53.268;8.308;2023-11-25T12:24:41;17.00;73.10
37658;DHT22;23500;53.268;8.308;2023-11-25T12:27:10;17.00;73.10
37658;DHT22;23500;53.268;8.308;2023-11-25T12:29:36;17.00;73.10
37658;DHT22;23500;53.268;8.308;2023-11-25T12:32:02;17.00;72.90
37658;DHT22;23500;53.268;8.308;2023-11-25T12:34:28;17.00;72.90
37658;DHT22;23500;53.268;8.308;2023-11-25T12:36:58;17.00;73.00
37658;DHT22;23500;53.268;8.308;2023-11-25T12:39:25;17.00;72.90
37658;DHT22;23500;53.268;8.308;2023-11-25T12:41:51;17.00;72.90
37658;DHT22;23500;53.268;8.308;2023-11-25T12:44:17;17.00;72.90
37658;DHT22;23500;53.268;8.308;2023-11-25T12:47:02;17.00;72.90
37658;DHT22;23500;53.268;8.308;2023-11-25T12:49:29;17.00;73.00
37658;DHT22;23500;53.268;8.308;2023-11-25T12:51:55;17.10;73.00
37658;DHT22;23500;53.268;8.308;2023-11-25T12:54:22;17.10;72.90
37658;DHT22;23500;53.268;8.308;2023-11-25T12:56:52;17.10;72.80
37658;DHT22;23500;53.268;8.308;2023-11-25T12:59:25;17.10;72.80
37658;DHT22;23500;53.268;8.308;2023-11-25T13:02:15;17.10;72.80
37658;DHT22;23500;53.268;8.308;2023-11-25T13:04:44;17.10;72.70
37658;DHT22;23500;53.268;8.308;2023-11-25T13:07:34;17.10;72.70
37658;DHT22;23500;53.268;8.308;2023-11-25T13:10:00;17.10;72.70
37658;DHT22;23500;53.268;8.308;2023-11-25T13:12:29;17.10;72.70
37658;DHT22;23500;53.268;8.308;2023-11-25T13:14:56;17.10;72.80
37658;DHT22;23500;53.268;8.308;2023-11-25T13:17:22;17.10;72.80
37658;DHT22;23500;53.268;8.308;2023-11-25T13:19:49;17.10;72.80
37658;DHT22;23500;53.268;8.308;2023-11-25T13:22:16;17.10;72.90
37658;DHT22;23500;53.268;8.308;2023-11-25T13:24:44;17.10;72.90
37658;DHT22;23500;53.268;8.308;2023-11-25T13:27:10;17.00;72.90
37658;DHT22;23500;53.268;8.308;2023-11-25T13:29:36;17.00;72.80
37658;DHT22;23500;53.268;8.308;2023-11-25T13:32:01;17.00;72.90
37658;DHT22;23500;53.268;8.308;2023-11-25T13:34:27;17.00;72.90
37658;DHT22;23500;53.268;8.308;2023-11-25T13:36:53;17.00;73.00
37658;DHT22;23500;53.268;8.308;2023-11-25T13:39:19;17.00;72.90
37658;DHT22;23500;53.268;8.308;2023-11-25T13:41:45;17.00;72.90
37658;DHT22;23500;53.268;8.308;2023-11-25T13:44:12;17.00;72.90
37658;DHT22;23500;53.268;8.308;2023-11-25T13:46:38;17.00;72.90
37658;DHT22;23500;53.268;8.308;2023-11-25T13:49:04;17.00;72.90
37658;DHT22;23500;53.268;8.308;2023-11-25T13:51:30;17.00;72.80
37658;DHT22;23500;53.268;8.308;2023-11-25T13:53:56;17.00;72.90
37658;DHT22;23500;53.268;8.308;2023-11-25T13:56:23;17.00;72.80
37658;DHT22;23500;53.268;8.308;2023-11-25T13:58:49;17.00;72.70
37658;DHT22;23500;53.268;8.308;2023-11-25T14:01:16;17.00;72.70
37658;DHT22;23500;53.268;8.308;2023-11-25T14:03:42;17.00;72.70
37658;DHT22;23500;53.268;8.308;2023-11-25T14:06:08;17.00;72.70
37658;DHT22;23500;53.268;8.308;2023-11-25T14:08:34;17.00;72.60
37658;DHT22;23500;53.268;8.308;2023-11-25T14:11:00;17.00;72.50
37658;DHT22;23500;53.268;8.308;2023-11-25T14:13:26;17.00;72.50
37658;DHT22;23500;53.268;8.308;2023-11-25T14:15:57;17.00;72.50
37658;DHT22;23500;53.268;8.308;2023-11-25T14:18:24;17.00;72.50
37658;DHT22;23500;53.268;8.308;2023-11-25T14:20:50;17.00;72.50
37658;DHT22;23500;53.268;8.308;2023-11-25T14:23:16;17.00;72.50
37658;DHT22;23500;53.268;8.308;2023-11-25T14:25:42;17.00;72.50
37658;DHT22;23500;53.268;8.308;2023-11-25T14:28:07;17.00;72.40
37658;DHT22;23500;53.268;8.308;2023-11-25T14:30:33;17.00;72.40
37658;DHT22;23500;53.268;8.308;2023-11-25T14:32:59;17.00;72.40
37658;DHT22;23500;53.268;8.308;2023-11-25T14:35:25;17.00;72.40
37658;DHT22;23500;53.268;8.308;2023-11-25T14:37:51;17.00;72.40
37658;DHT22;23500;53.268;8.308;2023-11-25T14:40:18;17.00;72.40
37658;DHT22;23500;53.268;8.308;2023-11-25T14:42:44;17.00;72.50
37658;DHT22;23500;53.268;8.308;2023-11-25T14:45:10;17.00;72.60
37658;DHT22;23500;53.268;8.308;2023-11-25T14:47:37;16.90;72.60
37658;DHT22;23500;53.268;8.308;2023-11-25T14:50:03;16.90;72.60
37658;DHT22;23500;53.268;8.308;2023-11-25T14:52:29;16.90;72.70
37658;DHT22;23500;53.268;8.308;2023-11-25T14:54:56;16.90;72.70
37658;DHT22;23500;53.268;8.308;2023-11-25T14:57:22;16.90;72.80
37658;DHT22;23500;53.268;8.308;2023-11-25T14:59:48;16.90;72.80
37658;DHT22;23500;53.268;8.308;2023-11-25T15:02:14;16.90;72.80
37658;DHT22;23500;53.268;8.308;2023-11-25T15:04:41;16.80;72.70
37658;DHT22;23500;53.268;8.308;2023-11-25T15:07:07;16.90;73.00
37658;DHT22;23500;53.268;8.308;2023-11-25T15:09:33;16.80;73.00
37658;DHT22;23500;53.268;8.308;2023-11-25T15:11:59;16.80;73.00
37658;DHT22;23500;53.268;8.308;2023-11-25T15:14:25;16.80;73.00
37658;DHT22;23500;53.268;8.308;2023-11-25T15:16:52;16.80;73.00
37658;DHT22;23500;53.268;8.308;2023-11-25T15:19:17;16.90;73.00
37658;DHT22;23500;53.268;8.308;2023-11-25T15:21:44;16.80;72.90
37658;DHT22;23500;53.268;8.308;2023-11-25T15:24:09;16.80;72.80
37658;DHT22;23500;53.268;8.308;2023-11-25T15:26:36;16.90;72.70
37658;DHT22;23500;53.268;8.308;2023-11-25T15:29:06;16.90;72.60
37658;DHT22;23500;53.268;8.308;2023-11-25T15:31:32;16.90;72.50
37658;DHT22;23500;53.268;8.308;2023-11-25T15:33:57;16.90;72.30
37658;DHT22;23500;53.268;8.308;2023-11-25T15:36:23;16.90;72.30
37658;DHT22;23500;53.268;8.308;2023-11-25T15:38:50;17.00;72.30
37658;DHT22;23500;53.268;8.308;2023-11-25T15:41:15;17.00;72.20
37658;DHT22;23500;53.268;8.308;2023-11-25T15:43:41;17.00;72.20